KRBD/RBD METAR and TAF weather

Enter ICAO airport designator
Station Type Date Time Source
KRBD METAR 2020/08/12 17:53 UTC NOAA

KRBD 121753Z 21007KT 10SM CLR 36/22 A2994 RMK AO2 SLP129 T03560217 10356 20272 50000 $


Station Type Date Time Source
KRBD Decoded METAR 2020/08/12 17:53 UTC NOAA

DALLAS EXECUTIVE AIRPORT, TX, United States (KRBD) 32-41N 096-52W 203M
Aug 12, 2020 - 01:53 PM EDT / 2020.08.12 1753 UTC
Wind: from the SSW (210 degrees) at 8 MPH (7 KT):0
Visibility: 10 mile(s):0
Sky conditions: clear
Temperature: 96.1 F (35.6 C)
Heat index: 103.6 F (39.8 C):1
Dew Point: 71.1 F (21.7 C)
Relative Humidity: 44%
Pressure (altimeter): 29.94 in. Hg (1013 hPa)
Pressure tendency: 0.00 inches (0.0 hPa) higher than three hours ago
ob: KRBD 121753Z 21007KT 10SM CLR 36/22 A2994 RMK AO2 SLP129 T03560217 10356 20272 50000
cycle: 18

Station Type Date Time Source
KRBD TAF UTC NOAA

Error!

Example: see airport list